createdAt,value
2019-03-31T00:00:34.072Z,13.03
2019-03-31T00:02:57.540Z,11.97
2019-03-31T00:05:20.978Z,12.20
2019-03-31T00:07:44.461Z,12.90
2019-03-31T00:10:08.526Z,12.90
2019-03-31T00:12:31.956Z,12.83
2019-03-31T00:14:55.429Z,13.33
2019-03-31T00:17:18.904Z,13.03
2019-03-31T00:19:42.324Z,13.07
2019-03-31T00:22:05.801Z,13.53
2019-03-31T00:24:29.266Z,14.07
2019-03-31T00:26:52.696Z,13.40
2019-03-31T00:29:16.163Z,13.33
2019-03-31T00:31:39.592Z,13.27
2019-03-31T00:34:03.132Z,13.10
2019-03-31T00:36:26.733Z,14.07
2019-03-31T00:38:50.192Z,13.33
2019-03-31T00:41:13.646Z,12.40
2019-03-31T00:43:37.412Z,13.00
2019-03-31T00:46:00.997Z,12.83
2019-03-31T00:48:24.462Z,12.37
2019-03-31T00:50:47.892Z,13.70
2019-03-31T00:53:11.493Z,12.73
2019-03-31T00:55:35.117Z,11.57
2019-03-31T00:57:58.540Z,11.57
2019-03-31T01:00:24.723Z,11.48
2019-03-31T01:02:48.594Z,11.57
2019-03-31T01:05:12.322Z,11.53
2019-03-31T01:07:35.849Z,11.60
2019-03-31T01:09:59.381Z,11.80
2019-03-31T01:12:25.781Z,11.77
2019-03-31T01:14:49.213Z,12.13
2019-03-31T01:17:14.599Z,13.30
2019-03-31T01:19:38.569Z,12.50
2019-03-31T01:22:02.041Z,12.63
2019-03-31T01:24:25.921Z,12.27
2019-03-31T01:26:49.394Z,12.20
2019-03-31T01:29:13.762Z,13.03
2019-03-31T01:31:49.665Z,12.53
2019-03-31T01:34:02.632Z,12.63
2019-03-31T01:36:26.065Z,13.22
2019-03-31T01:38:49.623Z,12.87
2019-03-31T01:41:13.823Z,12.37
2019-03-31T01:43:37.290Z,12.80
2019-03-31T01:46:00.983Z,13.50
2019-03-31T01:48:24.478Z,14.23
2019-03-31T01:50:47.948Z,13.70
2019-03-31T01:53:11.759Z,13.20
2019-03-31T01:55:35.186Z,13.27
2019-03-31T01:57:58.613Z,12.80
2019-03-31T02:00:26.763Z,12.37
2019-03-31T02:02:50.520Z,12.80
2019-03-31T02:05:14.024Z,12.67
2019-03-31T02:07:37.473Z,13.17
2019-03-31T02:10:00.907Z,14.33
2019-03-31T02:12:24.457Z,14.03
2019-03-31T02:14:47.871Z,12.83
2019-03-31T02:17:11.342Z,12.90
2019-03-31T02:19:34.818Z,12.67
2019-03-31T02:21:58.234Z,13.90
2019-03-31T02:24:21.701Z,13.50
2019-03-31T02:26:45.131Z,13.67
2019-03-31T02:29:08.607Z,13.47
2019-03-31T02:31:32.045Z,13.95
2019-03-31T02:33:55.473Z,13.57
2019-03-31T02:36:19.020Z,13.20
2019-03-31T02:38:42.455Z,12.90
2019-03-31T02:41:05.989Z,13.93
2019-03-31T02:43:29.463Z,16.57
2019-03-31T02:45:52.953Z,15.77
2019-03-31T02:48:16.377Z,14.60
2019-03-31T02:50:42.870Z,15.50
2019-03-31T02:53:06.384Z,14.57
2019-03-31T02:55:30.089Z,14.93
2019-03-31T02:57:54.030Z,15.90
2019-03-31T03:00:17.463Z,16.93
2019-03-31T03:02:42.767Z,16.73
2019-03-31T03:05:18.643Z,15.33
2019-03-31T03:07:32.726Z,15.37
2019-03-31T03:09:58.129Z,15.30
2019-03-31T03:12:23.701Z,13.67
2019-03-31T03:14:50.303Z,14.03
2019-03-31T03:17:13.712Z,13.83
2019-03-31T03:19:37.139Z,15.37
2019-03-31T03:22:00.622Z,16.90
2019-03-31T03:24:24.048Z,16.57
2019-03-31T03:26:47.499Z,16.47
2019-03-31T03:29:10.965Z,16.63
2019-03-31T03:31:34.452Z,17.37
2019-03-31T03:33:57.858Z,16.93
2019-03-31T03:36:21.321Z,16.47
2019-03-31T03:38:44.798Z,14.83
2019-03-31T03:41:08.259Z,15.63
2019-03-31T03:43:31.723Z,16.20
2019-03-31T03:45:55.154Z,18.10
2019-03-31T03:48:18.587Z,16.73
2019-03-31T03:50:42.063Z,15.93
2019-03-31T03:53:05.488Z,17.13
2019-03-31T03:55:29.044Z,16.33
2019-03-31T03:57:52.493Z,15.40
2019-03-31T04:00:16.115Z,16.27
2019-03-31T04:02:39.549Z,15.23
2019-03-31T04:05:03.007Z,15.60
2019-03-31T04:07:26.456Z,17.07
2019-03-31T04:09:49.884Z,17.57
2019-03-31T04:12:13.346Z,18.80
2019-03-31T04:14:36.819Z,16.87
2019-03-31T04:17:00.259Z,15.80
2019-03-31T04:19:23.727Z,16.20
2019-03-31T04:21:47.157Z,16.12
2019-03-31T04:24:10.642Z,15.13
2019-03-31T04:26:34.060Z,16.12
2019-03-31T04:28:57.499Z,17.87
2019-03-31T04:31:20.967Z,17.07
2019-03-31T04:33:51.618Z,18.23
2019-03-31T04:36:09.579Z,18.47
2019-03-31T04:38:33.045Z,17.00
2019-03-31T04:40:56.472Z,19.23
2019-03-31T04:43:20.251Z,19.70
2019-03-31T04:45:43.720Z,16.83
2019-03-31T04:48:07.158Z,16.40
2019-03-31T04:50:30.582Z,17.60
2019-03-31T04:52:54.039Z,20.40
2019-03-31T04:55:17.467Z,19.90
2019-03-31T04:57:40.930Z,19.27
2019-03-31T05:00:06.450Z,19.77
2019-03-31T05:02:30.207Z,19.60
2019-03-31T05:04:53.729Z,19.17
2019-03-31T05:07:17.210Z,19.07
2019-03-31T05:09:40.634Z,19.67
2019-03-31T05:12:04.135Z,17.97
2019-03-31T05:14:27.547Z,18.33
2019-03-31T05:16:50.972Z,17.80
2019-03-31T05:19:14.443Z,17.57
2019-03-31T05:21:37.866Z,17.53
2019-03-31T05:24:01.337Z,18.20
2019-03-31T05:26:24.769Z,17.17
2019-03-31T05:28:48.235Z,18.10
2019-03-31T05:31:11.705Z,19.13
2019-03-31T05:33:35.136Z,19.53
2019-03-31T05:35:58.561Z,17.73
2019-03-31T05:38:22.038Z,17.10
2019-03-31T05:40:45.819Z,18.93
2019-03-31T05:43:09.582Z,18.77
2019-03-31T05:45:33.272Z,18.12
2019-03-31T05:47:56.773Z,18.57
2019-03-31T05:50:20.238Z,20.30
2019-03-31T05:52:43.674Z,21.20
2019-03-31T05:55:07.516Z,19.67
2019-03-31T05:57:30.947Z,18.97
2019-03-31T05:59:54.373Z,18.57
2019-03-31T06:02:17.839Z,17.43
2019-03-31T06:04:41.567Z,20.73
2019-03-31T06:07:05.338Z,19.47
2019-03-31T06:09:28.770Z,18.63
2019-03-31T06:11:53.567Z,19.95
2019-03-31T06:14:17.246Z,21.93
2019-03-31T06:16:40.678Z,21.47
2019-03-31T06:19:04.199Z,21.33
2019-03-31T06:21:29.190Z,21.27
2019-03-31T06:23:53.162Z,21.37
2019-03-31T06:26:16.599Z,23.43
2019-03-31T06:28:40.106Z,23.30
2019-03-31T06:31:03.509Z,24.00
2019-03-31T06:33:26.941Z,23.70
2019-03-31T06:35:50.386Z,24.23
2019-03-31T06:38:13.850Z,23.57
2019-03-31T06:40:37.332Z,23.63
2019-03-31T06:43:00.759Z,23.13
2019-03-31T06:45:24.532Z,22.37
2019-03-31T06:47:48.008Z,21.77
2019-03-31T06:50:11.666Z,23.60
2019-03-31T06:52:35.202Z,22.93
2019-03-31T06:54:58.625Z,21.93
2019-03-31T06:57:22.052Z,22.87
2019-03-31T06:59:45.617Z,23.13
2019-03-31T07:02:09.391Z,26.77
2019-03-31T07:04:32.854Z,24.77
2019-03-31T07:06:56.292Z,23.27
2019-03-31T07:09:19.753Z,23.47
2019-03-31T07:11:43.234Z,22.95
2019-03-31T07:14:07.007Z,22.37
2019-03-31T07:16:30.503Z,23.60
2019-03-31T07:18:53.975Z,21.57
2019-03-31T07:21:17.710Z,21.50
2019-03-31T07:23:41.264Z,22.10
2019-03-31T07:26:05.350Z,21.43
2019-03-31T07:28:28.780Z,21.77
2019-03-31T07:30:52.242Z,22.47
2019-03-31T07:33:15.702Z,21.10
2019-03-31T07:35:39.276Z,20.73
2019-03-31T07:38:03.057Z,20.33
2019-03-31T07:40:26.712Z,21.20
2019-03-31T07:42:51.215Z,19.80
2019-03-31T07:45:16.729Z,20.57
2019-03-31T07:47:40.227Z,19.93
2019-03-31T07:50:06.347Z,19.20
2019-03-31T07:52:29.779Z,19.83
2019-03-31T07:54:53.202Z,19.17
2019-03-31T07:57:16.691Z,19.23
2019-03-31T07:59:40.166Z,18.17
2019-03-31T08:02:03.595Z,19.00
2019-03-31T08:04:27.023Z,18.40
2019-03-31T08:06:51.698Z,17.77
2019-03-31T08:09:15.485Z,18.40
2019-03-31T08:11:38.963Z,17.83
2019-03-31T08:14:02.443Z,17.40
2019-03-31T08:16:25.877Z,18.17
2019-03-31T08:18:49.332Z,17.57
2019-03-31T08:21:12.804Z,17.60
2019-03-31T08:23:36.504Z,17.53
2019-03-31T08:25:59.986Z,18.63
2019-03-31T08:28:24.891Z,17.97
2019-03-31T08:30:48.683Z,16.87
2019-03-31T08:33:12.160Z,17.30
2019-03-31T08:35:46.574Z,17.30
2019-03-31T08:38:01.026Z,17.60
2019-03-31T08:40:24.507Z,19.03
2019-03-31T08:42:47.947Z,21.10
2019-03-31T08:45:11.644Z,21.13
2019-03-31T08:47:35.078Z,21.47
2019-03-31T08:50:01.840Z,22.97
2019-03-31T08:52:23.701Z,22.97
2019-03-31T08:54:47.606Z,23.33
2019-03-31T08:57:11.046Z,24.83
2019-03-31T08:59:34.479Z,25.47
2019-03-31T09:01:57.954Z,27.53
2019-03-31T09:04:21.660Z,28.37
2019-03-31T09:06:45.438Z,28.80
2019-03-31T09:09:09.213Z,30.07
2019-03-31T09:11:32.973Z,29.40
2019-03-31T09:13:56.743Z,28.50
2019-03-31T09:16:20.476Z,28.53
2019-03-31T09:18:43.914Z,30.30
2019-03-31T09:21:07.642Z,28.57
2019-03-31T09:23:31.362Z,27.67
2019-03-31T09:25:55.083Z,27.77
2019-03-31T09:28:18.553Z,30.20
2019-03-31T09:30:41.985Z,29.40
2019-03-31T09:33:05.782Z,30.93
2019-03-31T09:35:29.219Z,31.00
2019-03-31T09:37:52.650Z,31.40
2019-03-31T09:40:16.264Z,32.00
2019-03-31T09:42:40.078Z,30.97
2019-03-31T09:45:03.829Z,31.07
2019-03-31T09:47:27.266Z,32.57
2019-03-31T09:49:50.731Z,33.43
2019-03-31T09:52:14.180Z,33.00
2019-03-31T09:54:37.663Z,33.43
2019-03-31T09:57:01.139Z,33.40
2019-03-31T09:59:24.583Z,34.40
2019-03-31T10:01:48.357Z,33.60
2019-03-31T10:04:12.061Z,35.17
2019-03-31T10:06:35.538Z,35.37
2019-03-31T10:08:59.876Z,36.07
2019-03-31T10:11:23.341Z,39.70
2019-03-31T10:13:46.873Z,41.53
2019-03-31T10:16:10.671Z,42.87
2019-03-31T10:18:34.129Z,43.40
2019-03-31T10:20:57.610Z,41.87
2019-03-31T10:23:21.379Z,42.40
2019-03-31T10:25:44.876Z,43.67
2019-03-31T10:28:08.326Z,42.00
2019-03-31T10:30:39.289Z,42.43
2019-03-31T10:33:03.507Z,41.80
2019-03-31T10:35:27.538Z,42.90
2019-03-31T10:37:51.597Z,43.70
2019-03-31T10:40:15.275Z,42.53
2019-03-31T10:42:38.704Z,41.57
2019-03-31T10:45:02.182Z,41.90
2019-03-31T10:47:25.624Z,42.87
2019-03-31T10:49:49.059Z,42.50
2019-03-31T10:52:12.539Z,44.20
2019-03-31T10:54:36.005Z,44.40
2019-03-31T10:56:59.737Z,43.30
2019-03-31T10:59:23.165Z,44.20
2019-03-31T11:01:46.596Z,44.47
2019-03-31T11:04:10.073Z,44.50
2019-03-31T11:06:33.543Z,45.23
2019-03-31T11:08:56.980Z,44.47
2019-03-31T11:11:20.457Z,44.17
2019-03-31T11:13:43.901Z,42.37
2019-03-31T11:16:07.363Z,42.07
2019-03-31T11:18:30.844Z,42.13
2019-03-31T11:20:54.288Z,43.37
2019-03-31T11:23:19.357Z,40.60
2019-03-31T11:25:42.840Z,43.40
2019-03-31T11:28:06.640Z,42.63
2019-03-31T11:30:30.103Z,42.07
2019-03-31T11:32:53.578Z,40.63
2019-03-31T11:35:17.132Z,40.73
2019-03-31T11:37:40.864Z,42.87
2019-03-31T11:40:08.472Z,40.43
2019-03-31T11:42:31.950Z,39.37
2019-03-31T11:44:55.694Z,40.03
2019-03-31T11:47:19.466Z,39.37
2019-03-31T11:49:43.253Z,41.20
2019-03-31T11:52:06.703Z,38.07
2019-03-31T11:54:30.184Z,38.47
2019-03-31T11:56:53.614Z,40.00
2019-03-31T11:59:17.088Z,40.13
2019-03-31T12:01:40.780Z,39.50
2019-03-31T12:04:04.622Z,42.30
2019-03-31T12:06:28.075Z,39.43
2019-03-31T12:08:51.874Z,38.87
2019-03-31T12:11:15.357Z,40.80
2019-03-31T12:13:38.802Z,40.87
2019-03-31T12:16:02.255Z,41.37
2019-03-31T12:18:25.743Z,41.13
2019-03-31T12:20:49.193Z,39.67
2019-03-31T12:23:12.627Z,40.73
2019-03-31T12:25:36.401Z,39.93
2019-03-31T12:27:59.840Z,39.37
2019-03-31T12:30:29.365Z,38.80
2019-03-31T12:32:53.059Z,39.93
2019-03-31T12:35:16.797Z,38.27
2019-03-31T12:37:42.725Z,38.80
2019-03-31T12:40:07.681Z,39.33
2019-03-31T12:42:31.139Z,36.60
2019-03-31T12:44:54.601Z,38.00
2019-03-31T12:47:18.094Z,39.87
2019-03-31T12:49:41.528Z,36.65
2019-03-31T12:52:05.022Z,39.00
2019-03-31T12:54:28.457Z,39.53
2019-03-31T12:56:51.894Z,39.43
2019-03-31T12:59:15.363Z,38.88
2019-03-31T13:01:38.809Z,38.67
2019-03-31T13:04:02.370Z,39.10
2019-03-31T13:06:25.829Z,36.28
2019-03-31T13:08:49.589Z,36.15
2019-03-31T13:11:13.761Z,37.15
2019-03-31T13:13:37.249Z,36.08
2019-03-31T13:16:00.741Z,34.40
2019-03-31T13:18:27.832Z,34.95
2019-03-31T13:20:49.935Z,34.70
2019-03-31T13:23:13.376Z,34.05
2019-03-31T13:25:36.841Z,36.25
2019-03-31T13:28:00.560Z,35.58
2019-03-31T13:30:24.991Z,36.03
2019-03-31T13:32:48.548Z,37.85
2019-03-31T13:35:12.034Z,36.17
2019-03-31T13:37:54.045Z,38.18
2019-03-31T13:40:17.510Z,37.27
2019-03-31T13:42:41.348Z,36.73
2019-03-31T13:45:07.147Z,37.15
2019-03-31T13:47:31.551Z,37.13
2019-03-31T13:49:55.048Z,36.67
2019-03-31T13:52:19.054Z,36.00
2019-03-31T13:54:42.953Z,35.20
2019-03-31T13:57:07.159Z,37.20
2019-03-31T13:59:32.208Z,36.73
2019-03-31T14:01:55.666Z,35.27
2019-03-31T14:04:19.227Z,34.90
2019-03-31T14:06:42.792Z,34.77
2019-03-31T14:09:08.897Z,34.33
2019-03-31T14:11:32.630Z,33.77
2019-03-31T14:13:56.299Z,33.23
2019-03-31T14:16:19.752Z,34.00
2019-03-31T14:18:43.186Z,34.40
2019-03-31T14:21:07.082Z,33.60
2019-03-31T14:23:30.964Z,33.53
2019-03-31T14:25:54.664Z,35.30
2019-03-31T14:28:18.132Z,34.63
2019-03-31T14:30:41.572Z,35.17
2019-03-31T14:33:04.997Z,34.17
2019-03-31T14:35:28.545Z,34.97
2019-03-31T14:37:52.092Z,33.37
2019-03-31T14:40:15.593Z,33.47
2019-03-31T14:42:39.094Z,35.60
2019-03-31T14:45:02.618Z,35.07
2019-03-31T14:47:26.096Z,34.30
2019-03-31T14:49:49.535Z,34.03
2019-03-31T14:52:26.765Z,34.67
2019-03-31T14:54:38.158Z,34.80
2019-03-31T14:57:01.594Z,35.90
2019-03-31T14:59:25.055Z,36.53
2019-03-31T15:01:48.488Z,33.60
2019-03-31T15:04:11.960Z,33.93
2019-03-31T15:06:35.492Z,36.67
2019-03-31T15:08:58.970Z,33.53
2019-03-31T15:11:22.443Z,36.57
2019-03-31T15:13:45.841Z,37.33
2019-03-31T15:16:09.325Z,35.90
2019-03-31T15:18:32.756Z,35.10
2019-03-31T15:20:56.500Z,33.43
2019-03-31T15:23:19.927Z,33.77
2019-03-31T15:25:43.428Z,33.83
2019-03-31T15:28:06.875Z,33.13
2019-03-31T15:30:30.303Z,34.77
2019-03-31T15:32:53.995Z,34.20
2019-03-31T15:35:17.548Z,33.97
2019-03-31T15:37:40.980Z,34.43
2019-03-31T15:40:08.195Z,33.15
2019-03-31T15:42:31.671Z,32.83
2019-03-31T15:44:55.105Z,32.77
2019-03-31T15:47:18.579Z,32.07
2019-03-31T15:49:42.354Z,32.87
2019-03-31T15:52:08.657Z,32.50
2019-03-31T15:54:30.985Z,31.77
2019-03-31T15:56:54.685Z,32.07
2019-03-31T15:59:18.150Z,33.20
2019-03-31T16:01:41.906Z,31.33
2019-03-31T16:04:05.366Z,31.93
2019-03-31T16:06:29.515Z,30.23
2019-03-31T16:08:52.944Z,30.03
2019-03-31T16:11:16.697Z,29.13
2019-03-31T16:13:40.154Z,29.43
2019-03-31T16:16:03.660Z,28.80
2019-03-31T16:18:27.131Z,28.20
2019-03-31T16:20:50.608Z,27.40
2019-03-31T16:23:14.124Z,27.40
2019-03-31T16:25:41.645Z,27.27
2019-03-31T16:28:05.153Z,27.73
2019-03-31T16:30:29.108Z,28.07
2019-03-31T16:32:52.536Z,27.73
2019-03-31T16:35:15.972Z,27.50
2019-03-31T16:37:39.445Z,27.10
2019-03-31T16:40:03.473Z,25.87
2019-03-31T16:42:26.946Z,25.40
2019-03-31T16:44:57.928Z,25.47
2019-03-31T16:47:15.568Z,25.80
2019-03-31T16:49:39.019Z,26.33
2019-03-31T16:52:02.481Z,27.67
2019-03-31T16:54:25.950Z,25.53
2019-03-31T16:56:49.658Z,25.00
2019-03-31T16:59:13.426Z,24.40
2019-03-31T17:01:36.895Z,24.47
2019-03-31T17:04:00.655Z,24.17
2019-03-31T17:06:24.130Z,23.70
2019-03-31T17:08:47.683Z,24.00
2019-03-31T17:11:11.118Z,24.53
2019-03-31T17:13:34.590Z,23.57
2019-03-31T17:15:58.070Z,24.53
2019-03-31T17:18:21.536Z,23.93
2019-03-31T17:20:44.969Z,25.23
2019-03-31T17:23:08.443Z,29.67
2019-03-31T17:25:31.879Z,24.83
2019-03-31T17:27:55.352Z,24.90
2019-03-31T17:30:19.264Z,23.60
2019-03-31T17:32:42.706Z,23.47
2019-03-31T17:35:06.270Z,24.77
2019-03-31T17:37:29.761Z,23.60
2019-03-31T17:40:05.316Z,24.00
2019-03-31T17:42:18.426Z,24.53
2019-03-31T17:44:41.918Z,24.37
2019-03-31T17:47:05.426Z,44.03
2019-03-31T17:49:28.852Z,45.63
2019-03-31T17:51:52.421Z,34.97
2019-03-31T17:54:16.181Z,31.23
2019-03-31T17:56:39.646Z,46.00
2019-03-31T17:59:03.109Z,53.73
2019-03-31T18:01:26.640Z,64.57
2019-03-31T18:03:50.364Z,43.47
2019-03-31T18:06:13.794Z,36.87
2019-03-31T18:08:37.347Z,27.97
2019-03-31T18:11:00.788Z,26.03
2019-03-31T18:13:24.250Z,23.57
2019-03-31T18:15:47.719Z,22.73
2019-03-31T18:18:11.156Z,24.37
2019-03-31T18:20:34.634Z,23.23
2019-03-31T18:22:58.416Z,22.30
2019-03-31T18:25:22.284Z,23.00
2019-03-31T18:27:45.722Z,22.87
2019-03-31T18:30:09.702Z,22.00
2019-03-31T18:32:33.177Z,21.27
2019-03-31T18:34:56.961Z,21.23
2019-03-31T18:37:20.425Z,20.40
2019-03-31T18:39:43.850Z,20.43
2019-03-31T18:42:07.314Z,19.40
2019-03-31T18:44:30.766Z,19.43
2019-03-31T18:46:54.216Z,18.93
2019-03-31T18:49:17.933Z,18.70
2019-03-31T18:51:41.407Z,17.90
2019-03-31T18:54:22.397Z,19.17
2019-03-31T18:56:56.488Z,20.27
2019-03-31T18:59:37.736Z,18.00
2019-03-31T19:02:17.934Z,17.57
2019-03-31T19:04:52.072Z,18.27
2019-03-31T19:07:33.188Z,19.80
2019-03-31T19:10:04.048Z,18.00
2019-03-31T19:12:45.570Z,18.30
2019-03-31T19:15:19.588Z,18.87
2019-03-31T19:17:44.693Z,19.30
2019-03-31T19:20:15.626Z,19.73
2019-03-31T19:22:40.989Z,19.43
2019-03-31T19:25:07.651Z,20.00
2019-03-31T19:27:35.309Z,21.23
2019-03-31T19:30:03.364Z,22.20
2019-03-31T19:32:31.094Z,20.10
2019-03-31T19:34:58.981Z,20.63
2019-03-31T19:37:40.533Z,19.63
2019-03-31T19:40:10.704Z,20.10
2019-03-31T19:42:44.963Z,19.83
2019-03-31T19:45:25.495Z,19.67
2019-03-31T19:47:59.720Z,18.50
2019-03-31T19:50:33.809Z,19.43
2019-03-31T19:53:04.593Z,18.23
2019-03-31T19:55:29.669Z,18.70
2019-03-31T19:58:03.626Z,18.00
2019-03-31T20:00:31.101Z,18.67
2019-03-31T20:02:58.911Z,20.77
2019-03-31T20:05:26.696Z,20.43
2019-03-31T20:07:52.146Z,19.97
2019-03-31T20:10:23.345Z,20.70
2019-03-31T20:12:48.457Z,18.70
2019-03-31T20:15:13.573Z,20.77
2019-03-31T20:17:44.378Z,19.93
2019-03-31T20:20:15.954Z,20.23
2019-03-31T20:22:59.131Z,19.37
2019-03-31T20:25:35.787Z,20.33
2019-03-31T20:28:00.967Z,20.27
2019-03-31T20:30:34.794Z,19.57
2019-03-31T20:33:08.936Z,20.87
2019-03-31T20:35:43.142Z,19.57
2019-03-31T20:38:08.212Z,20.17
2019-03-31T20:40:42.332Z,20.27
2019-03-31T20:43:13.297Z,20.83
2019-03-31T20:45:36.838Z,20.47
2019-03-31T20:48:00.263Z,19.10
2019-03-31T20:50:23.710Z,18.77
2019-03-31T20:52:47.139Z,16.90
2019-03-31T20:55:16.710Z,17.60
2019-03-31T20:57:36.193Z,17.73
2019-03-31T20:59:59.631Z,18.20
2019-03-31T21:02:23.440Z,18.27
2019-03-31T21:04:46.873Z,16.33
2019-03-31T21:07:10.345Z,16.67
2019-03-31T21:09:44.248Z,16.40
2019-03-31T21:11:58.973Z,16.90
2019-03-31T21:14:22.445Z,17.73
2019-03-31T21:16:45.949Z,16.53
2019-03-31T21:19:09.403Z,15.40
2019-03-31T21:21:32.838Z,18.57
2019-03-31T21:23:56.316Z,18.97
2019-03-31T21:26:19.748Z,18.17
2019-03-31T21:28:43.218Z,16.83
2019-03-31T21:31:06.683Z,16.97
2019-03-31T21:33:30.105Z,16.93
2019-03-31T21:35:53.534Z,19.83
2019-03-31T21:38:17.008Z,23.10
2019-03-31T21:40:40.445Z,18.67
2019-03-31T21:43:04.235Z,18.13
2019-03-31T21:45:27.720Z,17.17
2019-03-31T21:47:51.198Z,17.87
2019-03-31T21:50:14.624Z,17.03
2019-03-31T21:52:38.395Z,17.47
2019-03-31T21:55:02.172Z,16.27
2019-03-31T21:57:25.597Z,15.87
2019-03-31T21:59:49.073Z,15.60
2019-03-31T22:02:12.651Z,15.93
2019-03-31T22:04:36.074Z,16.57
2019-03-31T22:06:59.533Z,16.00
2019-03-31T22:09:23.015Z,15.47
2019-03-31T22:11:46.451Z,15.50
2019-03-31T22:14:10.671Z,14.87
2019-03-31T22:16:34.657Z,14.03
2019-03-31T22:18:58.427Z,14.43
2019-03-31T22:21:21.860Z,15.17
2019-03-31T22:23:57.409Z,15.00
2019-03-31T22:26:10.500Z,14.93
2019-03-31T22:28:34.017Z,14.10
2019-03-31T22:30:57.485Z,15.10
2019-03-31T22:33:20.941Z,13.93
2019-03-31T22:35:46.091Z,14.40
2019-03-31T22:38:09.555Z,13.63
2019-03-31T22:40:32.984Z,14.00
2019-03-31T22:42:56.415Z,13.93
2019-03-31T22:45:19.879Z,13.53
2019-03-31T22:47:43.350Z,13.97
2019-03-31T22:50:07.217Z,13.30
2019-03-31T22:52:30.677Z,12.30
2019-03-31T22:54:54.144Z,13.10
2019-03-31T22:57:17.571Z,13.00
2019-03-31T22:59:41.023Z,12.27
2019-03-31T23:02:04.548Z,11.83
2019-03-31T23:04:27.976Z,11.93
2019-03-31T23:06:51.445Z,11.10
2019-03-31T23:09:14.910Z,11.07
2019-03-31T23:11:38.336Z,10.70
2019-03-31T23:14:01.781Z,10.47
2019-03-31T23:16:25.213Z,10.63
2019-03-31T23:18:48.994Z,8.70
2019-03-31T23:21:12.426Z,9.97
2019-03-31T23:23:35.872Z,9.33
2019-03-31T23:25:59.335Z,9.00
2019-03-31T23:28:22.762Z,10.23
2019-03-31T23:30:46.401Z,8.93
2019-03-31T23:33:09.829Z,9.37
2019-03-31T23:35:33.557Z,8.40
2019-03-31T23:37:56.978Z,8.93
2019-03-31T23:40:20.504Z,8.60
2019-03-31T23:42:43.975Z,9.00
2019-03-31T23:45:08.457Z,9.10
2019-03-31T23:47:31.881Z,8.50
2019-03-31T23:49:55.342Z,8.97
2019-03-31T23:52:18.761Z,8.13
2019-03-31T23:54:42.212Z,8.57
2019-03-31T23:57:05.639Z,8.43
2019-03-31T23:59:29.401Z,9.43
